Fort Lauderdale, FL (33335)

12:07 AM EDT on March 28, 2015 (GMT -0400)
North Andrews Gardens | | Change Station
CLOSE
Current Station
Personal Weather Station
Location: Fort Lauderdale, FL
Elevation: 9 ft
Nearby Weather Stations

Elev 9 ft 26.18 °N, 80.14 °W | Updated 36 seconds ago

Clear
Clear
70.0 °F
Feels Like 70.0 °F
N
8.4
Wind Variable Wind from SE
Gusts 8.4 mph

Today
High -- | Low -- °F
--% Chance of Precip.
Yesterday
High -- | Low -- °F
Precip. -- in
7:16 AM 7:35 PM
First Quarter, 58% visible
Pressure 29.96 in
Visibility 10.0 miles
Clouds Clear
Dew Point 67 °F
Humidity 91%
Rainfall 0.15 in
Snow Depth Not available.
UV 0 out of 12
Pollen 8.50 out of 12
Air Quality Not available.
Flu Activity Not available.
METAR KFXE 280353Z 25010KT 10SM CLR 21/19 A2995 RMK AO2 SLP144 T02060189

More Conditions Fewer Conditions

Pressure 29.96 in
Visibility 10.0 miles
Clouds Clear
Dew Point 67 °F
Humidity 91%
Rainfall 0.15 in
Snow Depth Not available.
UV 0 out of 12
Pollen 8.50 out of 12
Air Quality Not available.
Flu Activity Not available.
METAR KFXE 280353Z 25010KT 10SM CLR 21/19 A2995 RMK AO2 SLP144 T02060189

More Conditions Fewer Conditions

Nowcast | as of 8:52 PM EDT on March 27, 2015

Through midnight...light to moderate rains will slowly end from the west to east from the interior areas to the Atlantic waters of South Florida. Rainfall amounts from the showers will range from tenth of an inch to half an inch. Mariners can also expect higher seas in and near the showers.

×

10-Day Weather Forecast

Almanac

Astronomy

Mar. 28, 2015 Rise Set
Actual Time
Civil Twilight
Nautical Twilight
Astronomical Twilight
Moon
Length of Visible Light
Length of Day
Tomorrow will be .
, % of the Moon is Illuminated

Today's Extremes

State Highs State Lows

Community

WunderPhotos

Upload Photos

1,808,931 photos uploaded!

WunderBlogs® & News

Nearby

Air Quality

  Air Quality AQ Index Pollutant
Not available.

Snow Depth

Station Depth Elevation

Earthquake Activity

City Distance Mag. Time & Date
Minimum magnitude displayed is 2.5.

Coastal Water Temperatures

Place Temperature

Stations

Nearby Weather Stations

Station Location Temp. Windchill Dew Point Humidity Wind Precip. Elev Updated Type